Time;durP1;ratioP1;P1;durP2;ratioP2;P2;SDS_P1;SDS_P2;PMS_P1;PMS_P2;Temp;Humidity;BMP_temperature;BMP_pressure;BME280_temperature;BME280_humidity;BME280_pressure;Samples;Min_cycle;Max_cycle;Signal;HPM_P1;HPM_P2
2023/11/06 00:02:25;;;;;;;4.03;0.75;;;;;;;17.76;49.05;99216.19;5036035;28;20103;-56
2023/11/06 00:04:50;;;;;;;5.63;0.57;;;;;;;17.79;48.88;99227.44;5018304;28;20071;-57
2023/11/06 00:07:15;;;;;;;16.05;0.95;;;;;;;17.79;48.02;99230.16;5035521;28;20412;-57
2023/11/06 00:09:41;;;;;;;1.48;0.60;;;;;;;17.78;48.18;99219.53;5018691;28;20038;-56
2023/11/06 00:12:06;;;;;;;1.95;0.47;;;;;;;17.78;48.81;99224.97;5036068;28;20071;-56
2023/11/06 00:14:33;;;;;;;5.70;0.65;;;;;;;17.81;48.22;99224.53;5034890;28;20033;-57
2023/11/06 00:16:58;;;;;;;3.38;1.17;;;;;;;17.82;48.65;99232.44;5017895;28;20584;-56
2023/11/06 00:19:23;;;;;;;5.90;0.75;;;;;;;17.83;48.42;99244.94;5035540;28;20112;-57
2023/11/06 00:21:49;;;;;;;3.55;0.80;;;;;;;17.83;48.74;99244.09;5035618;28;20034;-57
2023/11/06 00:24:14;;;;;;;5.60;0.90;;;;;;;17.84;48.65;99257.41;5035606;28;20116;-56
2023/11/06 00:26:40;;;;;;;0.85;0.30;;;;;;;17.83;47.96;99247.66;5035630;28;20029;-57
2023/11/06 00:29:07;;;;;;;2.88;0.40;;;;;;;17.83;48.42;99255.78;5035346;28;20114;-56
2023/11/06 00:31:39;;;;;;;2.80;0.60;;;;;;;17.82;48.69;99259.53;5035754;28;20040;-56
2023/11/06 00:34:04;;;;;;;4.45;0.47;;;;;;;17.85;48.90;99259.09;5034824;28;20037;-57
2023/11/06 00:36:30;;;;;;;0.88;0.35;;;;;;;17.87;48.25;99261.56;5036382;28;20370;-56
2023/11/06 00:38:55;;;;;;;4.47;1.60;;;;;;;17.86;48.68;99262.63;5018877;28;20040;-57
2023/11/06 00:41:20;;;;;;;3.70;0.40;;;;;;;17.87;48.58;99278.66;5034372;28;20030;-57
2023/11/06 00:43:46;;;;;;;3.22;0.75;;;;;;;17.87;48.87;99269.69;5035541;28;20025;-57
2023/11/06 00:46:11;;;;;;;1.60;1.08;;;;;;;17.86;48.51;99285.16;5018068;28;20030;-57
2023/11/06 00:48:37;;;;;;;3.03;1.08;;;;;;;17.86;47.99;99287.84;5034336;28;20405;-57
2023/11/06 00:51:03;;;;;;;2.35;0.50;;;;;;;17.82;48.77;99283.91;5033812;28;20091;-56
2023/11/06 00:53:28;;;;;;;5.03;0.70;;;;;;;17.86;48.25;99292.44;5035612;28;20045;-57
2023/11/06 00:55:54;;;;;;;0.80;0.47;;;;;;;17.85;47.99;99294.31;5035808;28;20037;-56
2023/11/06 00:58:19;;;;;;;1.90;0.40;;;;;;;17.84;47.72;99300.75;5034570;28;20036;-58
2023/11/06 01:00:45;;;;;;;0.63;0.20;;;;;;;17.87;48.57;99307.63;5036120;28;20453;-57
2023/11/06 01:03:10;;;;;;;3.38;0.50;;;;;;;17.86;48.09;99320.38;5036148;28;20523;-57
2023/11/06 01:05:36;;;;;;;1.42;0.50;;;;;;;17.84;48.33;99311.59;5019740;28;20581;-57
2023/11/06 01:08:04;;;;;;;1.50;0.30;;;;;;;17.84;48.78;99322.44;5034985;28;20469;-56
2023/11/06 01:10:32;;;;;;;3.95;0.88;;;;;;;17.83;48.06;99337.03;5033668;28;20489;-56
2023/11/06 01:12:59;;;;;;;3.92;0.70;;;;;;;17.83;48.37;99344.34;5033524;28;20037;-57
2023/11/06 01:15:26;;;;;;;0.40;0.30;;;;;;;17.83;48.48;99339.75;5034913;28;20036;-56
2023/11/06 01:17:51;;;;;;;4.18;0.80;;;;;;;17.81;48.39;99339.09;5017107;28;20068;-57
2023/11/06 01:20:18;;;;;;;4.82;0.90;;;;;;;17.82;48.16;99340.78;5034461;28;20025;-57
2023/11/06 01:22:43;;;;;;;4.28;0.73;;;;;;;17.82;48.33;99351.63;5033003;28;20126;-57
2023/11/06 01:25:09;;;;;;;1.77;0.50;;;;;;;17.83;48.30;99352.47;5034545;28;20029;-56
2023/11/06 01:27:35;;;;;;;1.67;0.88;;;;;;;17.78;48.87;99355.78;5035133;28;20045;-56
2023/11/06 01:30:00;;;;;;;6.35;0.95;;;;;;;17.79;48.38;99373.72;5034228;28;20400;-57
2023/11/06 01:32:25;;;;;;;22.08;0.80;;;;;;;17.76;48.48;99363.28;5033013;28;20049;-56
2023/11/06 01:34:51;;;;;;;2.58;0.70;;;;;;;17.75;48.15;99375.19;5016231;28;20042;-56
2023/11/06 01:37:16;;;;;;;6.35;1.00;;;;;;;17.75;48.89;99383.31;5034107;28;20057;-56
2023/11/06 01:39:42;;;;;;;5.72;0.68;;;;;;;17.78;48.55;99388.28;5033210;28;20079;-56
2023/11/06 01:42:07;;;;;;;1.77;0.88;;;;;;;17.76;48.64;99374.13;5034469;28;20033;-57
2023/11/06 01:44:32;;;;;;;3.90;0.60;;;;;;;17.79;47.81;99365.59;5033011;28;20417;-56
2023/11/06 01:46:58;;;;;;;3.10;0.70;;;;;;;17.78;48.23;99385.56;5032847;28;20516;-57
2023/11/06 01:49:23;;;;;;;12.23;1.05;;;;;;;17.78;48.86;99384.78;5032683;28;20026;-57
2023/11/06 01:51:50;;;;;;;2.03;0.57;;;;;;;17.79;48.06;99394.53;5016617;28;20033;-56
2023/11/06 01:54:15;;;;;;;2.08;0.60;;;;;;;17.77;47.81;99378.50;5032452;28;20033;-57
2023/11/06 01:56:41;;;;;;;2.50;0.52;;;;;;;17.73;48.90;99393.50;5034226;28;20560;-57
2023/11/06 01:59:07;;;;;;;3.55;0.80;;;;;;;17.72;48.30;99393.72;5032794;28;20034;-57
2023/11/06 02:01:36;;;;;;;3.03;0.60;;;;;;;17.72;48.59;99391.88;5032666;28;20523;-56
2023/11/06 02:04:06;;;;;;;3.45;0.77;;;;;;;17.73;49.42;99400.78;5032334;28;20081;-57
2023/11/06 02:06:32;;;;;;;2.80;0.80;;;;;;;17.73;48.35;99400.78;5032524;28;20040;-57
2023/11/06 02:09:00;;;;;;;1.98;0.40;;;;;;;17.71;48.18;99401.03;5033788;28;20022;-56
2023/11/06 02:11:25;;;;;;;2.08;0.63;;;;;;;17.73;48.11;99406.22;5032548;28;20068;-56
2023/11/06 02:13:51;;;;;;;2.15;0.57;;;;;;;17.68;48.14;99401.44;5033782;28;20071;-56
2023/11/06 02:16:16;;;;;;;3.65;0.60;;;;;;;17.70;48.58;99402.06;5034056;28;20421;-56
2023/11/06 02:18:41;;;;;;;5.43;0.82;;;;;;;17.70;49.31;99406.66;5035668;28;20053;-57
2023/11/06 02:21:07;;;;;;;2.80;0.45;;;;;;;17.71;48.19;99398.31;5035690;28;20037;-57
2023/11/06 02:23:35;;;;;;;3.92;0.57;;;;;;;17.70;49.09;99406.66;4989726;28;20523;-59
2023/11/06 02:26:01;;;;;;;1.80;0.30;;;;;;;17.68;48.53;99412.28;5031833;28;20092;-56
2023/11/06 02:28:26;;;;;;;0.85;0.55;;;;;;;17.66;49.25;99418.94;5018449;28;20477;-57
2023/11/06 02:30:52;;;;;;;2.10;0.73;;;;;;;17.63;48.38;99428.31;5034320;28;20052;-57
2023/11/06 02:33:21;;;;;;;2.70;1.13;;;;;;;17.63;48.87;99428.31;5034472;28;20029;-56
2023/11/06 02:35:47;;;;;;;1.17;0.60;;;;;;;17.61;48.57;99430.41;5034977;28;20033;-65
2023/11/06 02:38:13;;;;;;;1.83;0.65;;;;;;;17.58;48.82;99430.81;5032962;28;20091;-57
2023/11/06 02:40:39;;;;;;;3.22;0.68;;;;;;;17.59;49.26;99432.47;5033545;28;20014;-57
2023/11/06 02:43:04;;;;;;;7.10;0.50;;;;;;;17.58;48.85;99444.38;5033326;28;20014;-56
2023/11/06 02:45:29;;;;;;;5.00;0.70;;;;;;;17.57;49.16;99445.41;5033257;28;20033;-57
2023/11/06 02:47:55;;;;;;;4.68;0.88;;;;;;;17.56;48.97;99449.13;5033136;28;20030;-57
2023/11/06 02:50:21;;;;;;;5.28;0.93;;;;;;;17.55;48.96;99450.19;5031756;28;20073;-57
2023/11/06 02:52:46;;;;;;;2.70;0.40;;;;;;;17.53;48.97;99460.38;5015322;28;20473;-56
2023/11/06 02:55:12;;;;;;;4.97;0.52;;;;;;;17.53;48.98;99460.38;5031886;28;20017;-56
2023/11/06 02:57:37;;;;;;;4.43;0.68;;;;;;;17.52;48.72;99463.28;5016094;28;20098;-56
2023/11/06 03:00:06;;;;;;;6.63;0.80;;;;;;;17.52;48.47;99457.84;5015643;28;20083;-56
2023/11/06 03:02:35;;;;;;;6.03;0.85;;;;;;;17.51;48.88;99472.44;5033624;28;20030;-57
2023/11/06 03:05:03;;;;;;;1.80;0.32;;;;;;;17.45;48.59;99468.66;5015054;28;20037;-56
2023/11/06 03:07:30;;;;;;;5.22;0.90;;;;;;;17.43;49.37;99470.75;5032855;28;20376;-57
2023/11/06 03:09:56;;;;;;;2.88;0.50;;;;;;;17.40;48.97;99485.53;5032192;28;20090;-56
2023/11/06 03:12:22;;;;;;;7.43;0.70;;;;;;;17.39;49.31;99480.34;5031435;28;20121;-56
2023/11/06 03:14:47;;;;;;;3.80;1.08;;;;;;;17.37;49.58;99479.69;5031492;28;20040;-56
2023/11/06 03:17:13;;;;;;;4.68;0.98;;;;;;;17.37;48.94;99488.66;5031539;28;20045;-56
2023/11/06 03:19:38;;;;;;;2.20;0.65;;;;;;;17.38;48.25;99497.63;4999176;28;20121;-56
2023/11/06 03:22:04;;;;;;;5.63;0.55;;;;;;;17.35;48.55;99498.03;5031381;28;20049;-56
2023/11/06 03:24:29;;;;;;;4.30;0.98;;;;;;;17.32;48.48;99501.97;5032654;28;20030;-56
2023/11/06 03:26:54;;;;;;;6.53;0.88;;;;;;;17.30;48.55;99485.13;5032667;28;20034;-56
2023/11/06 03:29:20;;;;;;;5.78;0.82;;;;;;;17.32;49.57;99507.41;5032554;28;20038;-56
2023/11/06 03:31:47;;;;;;;3.33;0.52;;;;;;;17.33;48.19;99513.66;5032707;28;20504;-57
2023/11/06 03:34:12;;;;;;;5.07;0.82;;;;;;;17.32;48.60;99507.41;5033295;28;20029;-56
2023/11/06 03:36:42;;;;;;;6.93;1.02;;;;;;;17.32;48.55;99510.09;5033051;28;20037;-56
2023/11/06 03:39:08;;;;;;;3.95;0.70;;;;;;;17.33;49.00;99535.31;5031311;28;20030;-56
2023/11/06 03:41:33;;;;;;;3.65;0.82;;;;;;;17.30;48.93;99533.84;5032734;28;20086;-56
2023/11/06 03:43:58;;;;;;;5.85;0.60;;;;;;;17.29;49.25;99534.03;5032798;28;20504;-56
2023/11/06 03:46:25;;;;;;;1.98;1.00;;;;;;;17.28;49.24;99543.22;5031265;28;20389;-56
2023/11/06 03:48:50;;;;;;;5.85;0.88;;;;;;;17.30;49.15;99535.72;5031376;28;20053;-56
2023/11/06 03:51:16;;;;;;;7.90;0.65;;;;;;;17.29;49.03;99525.91;5035256;28;20064;-56
2023/11/06 03:53:41;;;;;;;6.18;1.05;;;;;;;17.26;49.43;99529.88;5036187;28;20030;-57
2023/11/06 03:56:09;;;;;;;10.02;1.55;;;;;;;17.29;48.35;99540.28;5035956;28;20037;-56
2023/11/06 03:58:35;;;;;;;8.80;1.50;;;;;;;17.28;48.64;99541.31;5036060;28;20029;-57
2023/11/06 04:01:01;;;;;;;3.45;0.73;;;;;;;17.23;49.35;99534.84;5035400;28;20032;-56
2023/11/06 04:03:26;;;;;;;4.97;0.65;;;;;;;17.21;49.00;99547.75;5035902;28;20037;-56
2023/11/06 04:05:52;;;;;;;9.70;1.05;;;;;;;17.22;48.92;99544.03;5034801;28;20113;-57
2023/11/06 04:08:17;;;;;;;7.75;1.33;;;;;;;17.22;49.56;99544.03;5034477;28;20085;-56
2023/11/06 04:10:43;;;;;;;2.17;0.80;;;;;;;17.20;49.78;99540.66;5017962;28;20509;-56
2023/11/06 04:13:08;;;;;;;5.55;0.80;;;;;;;17.21;49.84;99553.16;5035794;28;20053;-56
2023/11/06 04:15:34;;;;;;;9.98;1.02;;;;;;;17.20;49.26;99543.38;5034335;28;20104;-57
2023/11/06 04:17:59;;;;;;;5.97;1.00;;;;;;;17.19;49.50;99550.69;5036021;28;20167;-56
2023/11/06 04:20:25;;;;;;;6.10;1.13;;;;;;;17.21;49.31;99545.03;5034682;28;20022;-56
2023/11/06 04:22:50;;;;;;;7.07;1.00;;;;;;;17.21;48.40;99561.28;5034372;28;20493;-57
2023/11/06 04:25:15;;;;;;;3.75;1.27;;;;;;;17.22;48.92;99573.78;5035924;28;20029;-56
2023/11/06 04:27:41;;;;;;;4.03;1.17;;;;;;;17.18;49.88;99562.53;5035510;28;20075;-56
2023/11/06 04:30:08;;;;;;;7.65;1.35;;;;;;;17.18;49.27;99569.81;5034878;28;20491;-56
2023/11/06 04:32:34;;;;;;;10.23;1.20;;;;;;;17.17;49.43;99551.91;5035258;28;20091;-57
2023/11/06 04:34:59;;;;;;;7.05;1.27;;;;;;;17.17;49.14;99557.34;5034879;28;20053;-56
2023/11/06 04:37:25;;;;;;;8.85;1.58;;;;;;;17.16;48.98;99567.31;5035524;28;20493;-56
2023/11/06 04:39:50;;;;;;;13.38;1.10;;;;;;;17.14;49.63;99563.16;5035632;28;20034;-57
2023/11/06 04:42:16;;;;;;;6.63;1.08;;;;;;;17.13;49.01;99564.16;5034110;28;20111;-56
2023/11/06 04:44:41;;;;;;;10.90;1.48;;;;;;;17.13;49.82;99577.69;5035044;28;20037;-57
2023/11/06 04:47:08;;;;;;;3.75;0.75;;;;;;;17.14;49.80;99580.19;5029943;28;20041;-56
2023/11/06 04:49:34;;;;;;;7.05;1.02;;;;;;;17.17;49.92;99587.09;5033960;28;20029;-56
2023/11/06 04:51:59;;;;;;;8.88;1.48;;;;;;;17.17;49.16;99584.41;5034769;28;20362;-56
2023/11/06 04:54:25;;;;;;;10.98;1.27;;;;;;;17.16;49.89;99598.94;5035050;28;20051;-57
2023/11/06 04:56:50;;;;;;;3.38;1.13;;;;;;;17.20;49.40;99602.91;5033276;28;20045;-57
2023/11/06 04:59:16;;;;;;;4.10;1.02;;;;;;;17.20;48.87;99605.63;5033951;28;20109;-57
2023/11/06 05:01:43;;;;;;;7.72;1.10;;;;;;;17.27;49.01;99609.19;5033540;28;20383;-57
2023/11/06 05:04:08;;;;;;;7.95;1.10;;;;;;;17.31;49.97;99613.16;5034698;28;20480;-57
2023/11/06 05:06:33;;;;;;;4.68;1.13;;;;;;;17.30;49.48;99612.34;5016901;28;20040;-57
2023/11/06 05:09:04;;;;;;;12.88;1.45;;;;;;;17.31;48.52;99613.16;5033837;28;20029;-57
2023/11/06 05:11:30;;;;;;;4.53;1.25;;;;;;;17.34;49.34;99626.28;5027067;28;20029;-56
2023/11/06 05:13:56;;;;;;;10.68;1.50;;;;;;;17.37;49.48;99623.19;5017679;28;20030;-57
2023/11/06 05:16:21;;;;;;;5.50;1.00;;;;;;;17.36;49.08;99632.34;5035274;28;20068;-57
2023/11/06 05:18:47;;;;;;;6.00;1.85;;;;;;;17.36;49.02;99632.34;5036453;28;20025;-57
2023/11/06 05:21:21;;;;;;;6.60;1.30;;;;;;;17.34;49.27;99639.81;5033370;28;20056;-57
2023/11/06 05:23:48;;;;;;;3.55;1.00;;;;;;;17.37;49.24;99639.41;5034638;28;20041;-57
2023/11/06 05:26:14;;;;;;;5.50;0.82;;;;;;;17.38;49.20;99636.53;5033923;28;20092;-57
2023/11/06 05:28:40;;;;;;;7.18;1.10;;;;;;;17.39;49.18;99643.59;5034365;28;20041;-56
2023/11/06 05:31:05;;;;;;;6.07;0.85;;;;;;;17.38;48.90;99643.81;5016796;28;20041;-56
2023/11/06 05:33:30;;;;;;;11.43;1.35;;;;;;;17.34;49.53;99637.94;5016448;28;20040;-56
2023/11/06 05:35:56;;;;;;;5.72;1.35;;;;;;;17.34;49.07;99635.25;5034296;28;20037;-57
2023/11/06 05:38:21;;;;;;;12.63;1.77;;;;;;;17.33;49.70;99641.72;5034257;28;20025;-56
2023/11/06 05:40:46;;;;;;;9.32;2.00;;;;;;;17.32;48.96;99647.31;5034128;28;20049;-57
2023/11/06 05:43:12;;;;;;;12.65;1.33;;;;;;;17.31;49.43;99645.63;5034934;28;20049;-57
2023/11/06 05:45:37;;;;;;;9.88;1.70;;;;;;;17.29;49.52;99653.13;5016539;28;20060;-56
2023/11/06 05:48:04;;;;;;;11.85;1.33;;;;;;;17.29;49.38;99650.41;5034931;28;20041;-58
2023/11/06 05:50:30;;;;;;;5.18;0.85;;;;;;;17.33;49.39;99659.81;5037049;28;20093;-60
2023/11/06 05:52:56;;;;;;;8.65;1.52;;;;;;;17.32;48.08;99663.56;5035526;28;20108;-58
2023/11/06 05:55:21;;;;;;;10.30;1.30;;;;;;;17.30;48.68;99671.91;5035074;28;20542;-57
2023/11/06 05:57:47;;;;;;;13.52;1.33;;;;;;;17.31;49.48;99668.13;5016362;28;20029;-57
2023/11/06 06:00:15;;;;;;;7.55;1.40;;;;;;;17.30;49.32;99673.75;5034158;28;20040;-56
2023/11/06 06:02:40;;;;;;;10.55;1.55;;;;;;;17.32;48.46;99679.81;5032885;28;20037;-57
2023/11/06 06:05:06;;;;;;;9.52;1.50;;;;;;;17.33;48.40;99681.47;5032828;28;20026;-56
2023/11/06 06:07:32;;;;;;;3.55;1.33;;;;;;;17.28;49.37;99667.72;5032987;28;20570;-57
2023/11/06 06:09:57;;;;;;;16.70;1.88;;;;;;;17.28;49.18;99675.84;5033298;28;20120;-57
2023/11/06 06:12:23;;;;;;;6.70;1.35;;;;;;;17.28;49.41;99678.53;5033189;28;20094;-56
2023/11/06 06:14:50;;;;;;;10.35;1.52;;;;;;;17.27;48.32;99693.09;5015975;28;20112;-56
2023/11/06 06:17:16;;;;;;;8.52;1.15;;;;;;;17.27;49.76;99688.53;5033249;28;20045;-57
2023/11/06 06:19:42;;;;;;;5.43;0.80;;;;;;;17.23;49.43;99691.81;5032193;28;20440;-56
2023/11/06 06:22:07;;;;;;;14.90;1.67;;;;;;;17.25;48.61;99693.28;5032177;28;20038;-57
2023/11/06 06:24:32;;;;;;;7.88;1.17;;;;;;;17.27;49.34;99704.78;5033389;28;20091;-56
2023/11/06 06:26:58;;;;;;;6.32;1.33;;;;;;;17.22;48.78;99695.59;5032074;28;20413;-56
2023/11/06 06:29:24;;;;;;;4.28;0.90;;;;;;;17.17;48.41;99701.56;5033710;28;20523;-57
2023/11/06 06:31:53;;;;;;;7.68;1.33;;;;;;;17.20;49.32;99708.44;5033576;28;20083;-56
2023/11/06 06:34:20;;;;;;;9.60;1.83;;;;;;;17.20;49.57;99712.00;5033499;28;20041;-61
2023/11/06 06:36:46;;;;;;;8.20;1.25;;;;;;;17.21;48.92;99719.09;5031993;28;20116;-56
2023/11/06 06:39:11;;;;;;;7.80;0.85;;;;;;;17.19;48.63;99723.03;5033081;28;20136;-56
2023/11/06 06:41:37;;;;;;;16.42;1.45;;;;;;;17.19;48.61;99728.44;5032082;28;20033;-56
2023/11/06 06:44:03;;;;;;;4.55;1.35;;;;;;;17.20;48.23;99730.94;5033032;28;20460;-57
2023/11/06 06:46:30;;;;;;;13.05;1.40;;;;;;;17.22;48.81;99738.88;5033235;28;20417;-56
2023/11/06 06:48:56;;;;;;;9.82;1.40;;;;;;;17.23;48.35;99724.28;5031855;28;20440;-56
2023/11/06 06:51:21;;;;;;;6.57;1.08;;;;;;;17.23;48.79;99735.97;5031760;28;20049;-57
2023/11/06 06:53:49;;;;;;;11.98;1.60;;;;;;;17.21;48.40;99745.31;5031543;28;20037;-57
2023/11/06 06:56:16;;;;;;;6.43;1.20;;;;;;;17.19;49.42;99744.69;5031785;28;20057;-57
2023/11/06 06:58:42;;;;;;;5.30;1.05;;;;;;;17.17;48.47;99746.78;5005910;28;20536;-57
2023/11/06 07:01:08;;;;;;;13.00;1.30;;;;;;;17.17;48.01;99752.19;5033075;28;20132;-56
2023/11/06 07:03:36;;;;;;;7.05;1.00;;;;;;;17.18;48.86;99753.84;5032704;28;20056;-57
2023/11/06 07:06:01;;;;;;;10.27;2.22;;;;;;;17.23;48.35;99745.94;5031665;28;20030;-57
2023/11/06 07:08:27;;;;;;;13.05;1.20;;;;;;;17.22;48.89;99744.28;5032785;28;20037;-56
2023/11/06 07:10:53;;;;;;;10.77;1.48;;;;;;;17.29;49.23;99756.00;5031559;28;20042;-56
2023/11/06 07:13:19;;;;;;;6.07;1.10;;;;;;;17.31;48.56;99748.50;5032784;28;20077;-57
2023/11/06 07:15:44;;;;;;;7.53;1.10;;;;;;;17.35;48.65;99760.63;5032833;28;20057;-56
2023/11/06 07:18:10;;;;;;;2.25;0.93;;;;;;;17.40;48.26;99763.56;5032954;28;20033;-57
2023/11/06 07:20:36;;;;;;;7.03;0.93;;;;;;;17.43;48.58;99765.88;5032749;28;20029;-57
2023/11/06 07:23:02;;;;;;;4.03;0.90;;;;;;;17.43;48.35;99765.88;5032694;28;20036;-56
2023/11/06 07:25:28;;;;;;;4.15;1.13;;;;;;;17.44;48.59;99770.25;5036455;28;20056;-57
2023/11/06 07:27:53;;;;;;;10.40;1.65;;;;;;;17.44;47.55;99767.53;5035515;28;20033;-57
2023/11/06 07:30:18;;;;;;;3.15;0.70;;;;;;;17.50;47.33;99769.47;5035619;28;20038;-57
2023/11/06 07:32:45;;;;;;;8.63;1.30;;;;;;;17.58;48.09;99766.63;5035376;28;20501;-57
2023/11/06 07:35:12;;;;;;;3.78;0.93;;;;;;;17.70;47.99;99773.13;5036562;28;20535;-57
2023/11/06 07:37:37;;;;;;;7.97;1.23;;;;;;;17.83;46.96;99778.63;5018854;28;20558;-57
2023/11/06 07:40:05;;;;;;;9.23;1.40;;;;;;;17.93;48.11;99776.34;5034903;28;20169;-56
2023/11/06 07:42:30;;;;;;;2.40;1.38;;;;;;;18.08;47.08;99789.78;5036293;28;20497;-56
2023/11/06 07:44:56;;;;;;;4.53;1.45;;;;;;;18.16;47.66;99781.44;5035003;28;20033;-57
2023/11/06 07:47:21;;;;;;;2.72;0.88;;;;;;;18.23;46.92;99776.06;5035107;28;20029;-57
2023/11/06 07:49:47;;;;;;;10.35;1.92;;;;;;;18.30;47.13;99782.31;5018637;28;20175;-57
2023/11/06 07:52:13;;;;;;;15.40;1.35;;;;;;;18.39;46.55;99773.81;5036311;28;20033;-57
2023/11/06 07:54:42;;;;;;;3.55;0.90;;;;;;;18.44;47.09;99779.44;5034995;28;20393;-57
2023/11/06 07:57:09;;;;;;;7.38;1.40;;;;;;;18.47;46.77;99775.47;5034751;28;20025;-57
2023/11/06 07:59:38;;;;;;;5.53;0.75;;;;;;;18.53;47.03;99778.25;5034942;28;20071;-57
2023/11/06 08:02:04;;;;;;;5.05;0.90;;;;;;;18.60;46.63;99784.50;5034673;28;20028;-57
2023/11/06 08:04:29;;;;;;;3.90;0.80;;;;;;;18.59;46.80;99792.88;5034573;28;20049;-56
2023/11/06 08:06:55;;;;;;;6.68;1.75;;;;;;;18.59;46.18;99793.69;5035937;28;20030;-57
2023/11/06 08:09:20;;;;;;;4.75;1.02;;;;;;;18.56;46.50;99794.09;5035955;28;20025;-57
2023/11/06 08:11:46;;;;;;;10.57;1.40;;;;;;;18.61;46.39;99796.19;5036024;28;20048;-57
2023/11/06 08:14:11;;;;;;;5.68;0.95;;;;;;;18.66;46.48;99792.84;5035632;28;20370;-58
2023/11/06 08:16:37;;;;;;;6.25;1.17;;;;;;;18.67;46.19;99787.25;5034742;28;20029;-56
2023/11/06 08:19:03;;;;;;;5.25;2.10;;;;;;;18.66;46.29;99796.41;5035552;28;20017;-56
2023/11/06 08:21:28;;;;;;;12.88;1.63;;;;;;;18.71;45.99;99785.75;5035592;28;20075;-57
2023/11/06 08:23:54;;;;;;;4.95;1.00;;;;;;;18.65;46.24;99805.56;5035271;28;20045;-57
2023/11/06 08:26:21;;;;;;;8.02;2.15;;;;;;;18.59;45.80;99792.88;5034663;28;20029;-57
2023/11/06 08:28:47;;;;;;;7.53;0.90;;;;;;;18.74;46.10;99800.78;5034225;28;20439;-57
2023/11/06 08:31:18;;;;;;;8.73;1.35;;;;;;;18.73;46.07;99797.28;5035493;28;20500;-56
2023/11/06 08:33:43;;;;;;;10.27;1.70;;;;;;;18.76;46.12;99804.16;5034368;28;20132;-57
2023/11/06 08:36:09;;;;;;;10.43;1.80;;;;;;;18.80;46.29;99808.09;5033270;28;20498;-57
2023/11/06 08:38:35;;;;;;;7.75;1.80;;;;;;;18.87;46.06;99822.53;5035290;28;20036;-57
2023/11/06 08:41:02;;;;;;;7.50;0.93;;;;;;;18.91;45.71;99802.91;5033937;28;20060;-57
2023/11/06 08:43:27;;;;;;;11.07;1.63;;;;;;;19.01;45.75;99803.31;5034168;28;20060;-57
2023/11/06 08:45:53;;;;;;;4.30;0.82;;;;;;;18.97;45.72;99807.50;5035179;28;20037;-57
2023/11/06 08:48:19;;;;;;;5.50;1.10;;;;;;;18.97;45.63;99815.66;5033763;28;20033;-57
2023/11/06 08:50:44;;;;;;;3.83;0.98;;;;;;;19.02;45.69;99809.59;5035079;28;20108;-57
2023/11/06 08:53:09;;;;;;;4.38;1.55;;;;;;;19.12;45.48;99810.84;5035018;28;20041;-57
2023/11/06 08:55:35;;;;;;;5.57;0.55;;;;;;;19.10;45.45;99818.34;5033874;28;20021;-57
2023/11/06 08:58:00;;;;;;;4.40;1.23;;;;;;;19.06;45.73;99817.13;5034906;28;20033;-56
2023/11/06 09:00:29;;;;;;;6.55;1.65;;;;;;;18.97;45.54;99818.38;5033634;28;20026;-56
2023/11/06 09:02:54;;;;;;;6.50;0.80;;;;;;;19.08;45.55;99819.63;5034718;28;20064;-57
2023/11/06 09:05:20;;;;;;;5.45;0.85;;;;;;;19.02;45.31;99825.88;5034955;28;20057;-57
2023/11/06 09:07:47;;;;;;;7.38;1.08;;;;;;;18.92;45.58;99810.00;5034309;28;20041;-56
2023/11/06 09:10:12;;;;;;;4.50;1.50;;;;;;;19.26;45.21;99821.72;5035115;28;20064;-56
2023/11/06 09:12:37;;;;;;;8.75;0.90;;;;;;;19.86;43.96;99812.41;5033537;28;20029;-56
2023/11/06 09:15:03;;;;;;;11.23;1.48;;;;;;;19.84;44.93;99826.22;5034746;28;20503;-56
2023/11/06 09:17:29;;;;;;;8.82;1.38;;;;;;;19.64;44.79;99830.88;5016786;28;20036;-57
2023/11/06 09:19:54;;;;;;;12.45;1.67;;;;;;;19.72;44.88;99823.34;5016895;28;20029;-57
2023/11/06 09:22:20;;;;;;;5.55;1.35;;;;;;;20.31;44.18;99823.16;5034296;28;20083;-59
2023/11/06 09:24:45;;;;;;;6.63;1.10;;;;;;;20.50;43.84;99837.69;5033137;28;20060;-56
2023/11/06 09:27:10;;;;;;;15.65;1.25;;;;;;;20.20;44.66;99842.84;5033114;28;20120;-57
2023/11/06 09:29:36;;;;;;;10.23;0.95;;;;;;;20.13;44.53;99836.56;5016365;28;20035;-57
2023/11/06 09:32:01;;;;;;;4.53;1.05;;;;;;;20.02;43.97;99839.97;5034382;28;20042;-57
2023/11/06 09:34:26;;;;;;;9.02;3.38;;;;;;;19.87;44.70;99842.13;5034627;28;20088;-57
2023/11/06 09:36:52;;;;;;;6.93;0.80;;;;;;;19.95;44.78;99843.75;5034404;28;20121;-58
2023/11/06 09:39:17;;;;;;;9.18;1.00;;;;;;;19.91;44.65;99843.34;5032896;28;20061;-57
2023/11/06 09:41:43;;;;;;;8.02;1.10;;;;;;;19.98;44.65;99837.91;5034220;28;20173;-56
2023/11/06 09:44:08;;;;;;;7.80;2.03;;;;;;;20.22;44.15;99842.59;5033252;28;20026;-57
2023/11/06 09:46:35;;;;;;;6.68;1.10;;;;;;;21.21;42.86;99841.03;5032967;28;20397;-57
2023/11/06 09:49:14;;;;;;;11.23;1.48;;;;;;;21.97;42.60;99840.72;5032139;28;20497;-57
2023/11/06 09:51:41;;;;;;;5.40;1.20;;;;;;;22.54;41.80;99834.75;5032990;28;20079;-57
2023/11/06 09:54:08;;;;;;;6.55;1.33;;;;;;;23.07;41.23;99845.75;5016213;28;20412;-57
2023/11/06 09:56:33;;;;;;;5.80;1.05;;;;;;;23.51;41.21;99844.41;5016575;28;20098;-57
2023/11/06 09:58:59;;;;;;;5.30;1.23;;;;;;;23.96;40.35;99847.34;5032859;28;20493;-60
2023/11/06 10:01:28;;;;;;;6.07;1.42;;;;;;;24.39;40.08;99846.09;5016022;28;20041;-57
2023/11/06 10:03:55;;;;;;;3.30;1.05;;;;;;;24.69;39.59;99843.97;5032504;28;20041;-58
2023/11/06 10:06:21;;;;;;;5.22;1.67;;;;;;;24.99;39.20;99851.94;5033620;28;20030;-57
2023/11/06 10:08:46;;;;;;;5.25;0.90;;;;;;;24.32;39.91;99846.25;5032213;28;20163;-57
2023/11/06 10:11:21;;;;;;;3.13;0.65;;;;;;;24.14;40.24;99860.09;5032162;28;20074;-57
2023/11/06 10:13:54;;;;;;;7.78;2.40;;;;;;;24.31;39.77;99855.53;5033500;28;20455;-57
2023/11/06 10:16:23;;;;;;;15.73;1.27;;;;;;;24.13;40.46;99858.44;5032130;28;20025;-57
2023/11/06 10:19:09;;;;;;;4.68;0.98;;;;;;;24.44;39.59;99855.25;5030312;28;20489;-58
2023/11/06 10:21:34;;;;;;;6.03;0.85;;;;;;;24.82;39.39;99852.75;5045935;28;20068;-57
2023/11/06 10:24:00;;;;;;;4.25;1.25;;;;;;;25.17;38.61;99854.47;5032145;28;20099;-58
2023/11/06 10:26:31;;;;;;;5.05;1.73;;;;;;;25.04;38.93;99857.53;5033293;28;20032;-57
2023/11/06 10:29:17;;;;;;;3.00;0.98;;;;;;;24.48;39.91;99856.44;5033305;28;20034;-58
2023/11/06 10:31:46;;;;;;;5.47;1.13;;;;;;;24.86;38.76;99853.94;5031703;28;20539;-58
2023/11/06 10:34:26;;;;;;;5.50;0.60;;;;;;;24.74;38.65;99849.53;5031916;28;20033;-58
2023/11/06 10:37:01;;;;;;;2.75;0.75;;;;;;;24.28;38.76;99859.59;5032019;28;20033;-58
2023/11/06 10:39:26;;;;;;;5.22;0.82;;;;;;;23.79;39.44;99862.84;5034579;28;20091;-63
2023/11/06 10:42:00;;;;;;;4.93;0.90;;;;;;;23.59;39.75;99854.19;5034509;28;20037;-58
2023/11/06 10:44:25;;;;;;;4.05;0.93;;;;;;;23.50;39.54;99856.44;5034882;28;20033;-58
2023/11/06 10:46:51;;;;;;;4.63;0.60;;;;;;;23.37;39.45;99861.22;5017051;28;20037;-58
2023/11/06 10:49:23;;;;;;;4.70;1.02;;;;;;;23.63;39.40;99858.94;5033555;28;20036;-58
2023/11/06 10:51:51;;;;;;;1.33;0.60;;;;;;;23.20;39.92;99863.81;5032035;28;20531;-58
2023/11/06 10:54:19;;;;;;;8.13;0.85;;;;;;;23.39;39.59;99856.41;5033013;28;20044;-58
2023/11/06 10:56:45;;;;;;;1.50;0.47;;;;;;;23.24;39.94;99865.03;5031727;28;20030;-57
2023/11/06 10:59:12;;;;;;;1.48;0.63;;;;;;;23.60;39.78;99858.56;5015194;28;20033;-58
2023/11/06 11:01:39;;;;;;;4.30;0.70;;;;;;;24.15;38.68;99867.22;5033227;28;20025;-57
2023/11/06 11:04:08;;;;;;;4.00;0.60;;;;;;;24.06;39.30;99860.44;5031575;28;20042;-58
2023/11/06 11:06:35;;;;;;;5.50;1.02;;;;;;;24.52;38.20;99857.59;5032007;28;20088;-57
2023/11/06 11:09:00;;;;;;;3.38;0.60;;;;;;;24.44;38.36;99862.63;5032687;28;20040;-57
2023/11/06 11:11:27;;;;;;;2.95;1.00;;;;;;;23.97;38.85;99859.97;5015091;28;20030;-58
2023/11/06 11:13:52;;;;;;;1.95;0.65;;;;;;;23.68;39.35;99877.34;5015256;28;20454;-57
2023/11/06 11:16:45;;;;;;;2.47;0.70;;;;;;;23.33;38.97;99873.72;5031489;28;20071;-57
2023/11/06 11:19:22;;;;;;;3.70;0.32;;;;;;;22.92;39.88;99871.84;5031713;28;20093;-58
2023/11/06 11:22:12;;;;;;;2.10;1.05;;;;;;;22.72;39.40;99876.75;5032805;28;20034;-58
2023/11/06 11:24:50;;;;;;;4.47;0.57;;;;;;;22.43;39.58;99881.94;5032618;28;20405;-61
2023/11/06 11:27:21;;;;;;;2.45;0.60;;;;;;;22.44;40.26;99875.41;5032654;28;20382;-61
2023/11/06 11:29:58;;;;;;;4.85;0.68;;;;;;;22.22;40.37;99876.94;5032509;28;20049;-58